Time;durP1;ratioP1;P1;durP2;ratioP2;P2;SDS_P1;SDS_P2;PMS_P1;PMS_P2;Temp;Humidity;BMP_temperature;BMP_pressure;BME280_temperature;BME280_humidity;BME280_pressure;Samples;Min_cycle;Max_cycle;Signal;HPM_P1;HPM_P2
2023/05/14 00:00:52;;;;;;;;;;;;;;;22.48;50.24;101417.16;2357758;75;52114;-74
2023/05/14 00:03:54;;;;;;;;;;;;;;;22.49;50.26;101416.11;2333761;75;52641;-74
2023/05/14 00:06:56;;;;;;;;;;;;;;;22.49;50.30;101419.33;2361621;75;51499;-74
2023/05/14 00:09:58;;;;;;;;;;;;;;;22.49;50.30;101416.63;2361916;74;51532;-74
2023/05/14 00:12:59;;;;;;;;;;;;;;;22.49;50.35;101411.23;2357659;75;51502;-74
2023/05/14 00:16:01;;;;;;;;;;;;;;;22.48;50.44;101409.06;2323726;75;52450;-74
2023/05/14 00:19:02;;;;;;;;;;;;;;;22.49;50.49;101413.94;2361781;75;51409;-73
2023/05/14 00:22:04;;;;;;;;;;;;;;;22.49;50.49;101405.33;2359789;74;51533;-73
2023/05/14 00:25:06;;;;;;;;;;;;;;;22.49;50.50;101407.19;2358818;75;50617;-73
2023/05/14 00:28:07;;;;;;;;;;;;;;;22.48;50.59;101398.27;2333897;75;51245;-73
2023/05/14 00:31:09;;;;;;;;;;;;;;;22.48;50.68;101398.77;2357638;75;50299;-73
2023/05/14 00:34:11;;;;;;;;;;;;;;;22.49;50.74;101396.41;2361984;75;50395;-73
2023/05/14 00:37:12;;;;;;;;;;;;;;;22.49;50.76;101395.06;2357261;75;50642;-74
2023/05/14 00:40:14;;;;;;;;;;;;;;;22.50;50.80;101392.67;2334863;75;52586;-73
2023/05/14 00:43:16;;;;;;;;;;;;;;;22.50;50.77;101389.97;2357807;75;50694;-73
2023/05/14 00:46:17;;;;;;;;;;;;;;;22.48;50.78;101388.83;2361714;75;50143;-73
2023/05/14 00:49:19;;;;;;;;;;;;;;;22.49;50.73;101393.70;2361752;75;50138;-73
2023/05/14 00:52:21;;;;;;;;;;;;;;;22.49;50.77;101391.02;2333879;74;52468;-73
2023/05/14 00:55:23;;;;;;;;;;;;;;;22.49;50.73;101378.36;2361939;75;51552;-74
2023/05/14 00:58:25;;;;;;;;;;;;;;;22.49;50.84;101383.75;2360099;75;51457;-72
2023/05/14 01:01:27;;;;;;;;;;;;;;;22.45;51.00;101379.75;2354724;75;51515;-73
2023/05/14 01:04:29;;;;;;;;;;;;;;;22.48;50.90;101379.88;2380292;74;49636;-73
2023/05/14 01:07:35;;;;;;;;;;;;;;;22.48;50.93;101377.19;2354467;75;50602;-73
2023/05/14 01:10:38;;;;;;;;;;;;;;;22.48;50.88;101378.53;2354735;75;51483;-73
2023/05/14 01:13:58;;;;;;;;;;;;;;;22.48;50.90;101376.70;2354201;75;51421;-72
2023/05/14 01:17:00;;;;;;;;;;;;;;;22.47;50.86;101383.10;2379617;74;52397;-73
2023/05/14 01:20:01;;;;;;;;;;;;;;;22.48;50.85;101381.23;2354696;75;51487;-73
2023/05/14 01:23:03;;;;;;;;;;;;;;;22.48;50.87;101378.53;2360441;75;51599;-74
2023/05/14 01:26:05;;;;;;;;;;;;;;;22.46;50.87;101377.91;2395645;73;52280;-73
2023/05/14 01:29:11;;;;;;;;;;;;;;;22.46;50.89;101375.22;2334689;75;52462;-73
2023/05/14 01:32:12;;;;;;;;;;;;;;;22.45;50.89;101373.53;2360310;74;50434;-73
2023/05/14 01:35:14;;;;;;;;;;;;;;;22.46;50.87;101373.88;2360367;75;50641;-74
2023/05/14 01:38:17;;;;;;;;;;;;;;;22.46;50.91;101377.91;2360072;75;52209;-73
2023/05/14 01:41:20;;;;;;;;;;;;;;;22.45;50.96;101372.19;2361996;74;52556;-73
2023/05/14 01:44:21;;;;;;;;;;;;;;;22.44;50.93;101366.48;2360420;75;50289;-73
2023/05/14 01:47:23;;;;;;;;;;;;;;;22.45;50.93;101374.88;2360195;75;50768;-73
2023/05/14 01:50:24;;;;;;;;;;;;;;;22.45;50.93;101364.09;2360697;75;51542;-72
2023/05/14 01:53:26;;;;;;;;;;;;;;;22.44;50.94;101367.83;2357139;75;51480;-73
2023/05/14 01:56:28;;;;;;;;;;;;;;;22.44;50.94;101364.61;2355659;75;51397;-73
2023/05/14 01:59:29;;;;;;;;;;;;;;;22.45;51.12;101366.27;2354009;75;51528;-73
2023/05/14 02:02:31;;;;;;;;;;;;;;;22.47;51.04;101362.87;2354208;75;50630;-72
2023/05/14 02:05:32;;;;;;;;;;;;;;;22.44;51.12;101363.27;2310415;75;51170;-72
2023/05/14 02:08:34;;;;;;;;;;;;;;;22.44;51.17;101359.22;2356434;74;50641;-73
2023/05/14 02:11:35;;;;;;;;;;;;;;;22.44;51.12;101362.44;2357032;75;50348;-70
2023/05/14 02:14:37;;;;;;;;;;;;;;;22.44;51.12;101356.52;2357395;75;50409;-71
2023/05/14 02:17:39;;;;;;;;;;;;;;;22.45;51.13;101361.39;2330210;75;51686;-70
2023/05/14 02:20:40;;;;;;;;;;;;;;;22.45;51.14;101357.35;2357125;75;50215;-70
2023/05/14 02:23:43;;;;;;;;;;;;;;;22.44;51.15;101357.87;2362896;74;50737;-69
2023/05/14 02:26:44;;;;;;;;;;;;;;;22.45;51.14;101357.35;2358522;74;50649;-70
2023/05/14 02:29:46;;;;;;;;;;;;;;;22.43;51.23;101353.52;2333629;75;49537;-70
2023/05/14 02:32:47;;;;;;;;;;;;;;;22.43;51.33;101352.17;2356497;74;50283;-69
2023/05/14 02:35:49;;;;;;;;;;;;;;;22.43;51.34;101349.95;2358598;75;50891;-70
2023/05/14 02:38:51;;;;;;;;;;;;;;;22.43;51.35;101353.52;2360214;75;51051;-69
2023/05/14 02:41:52;;;;;;;;;;;;;;;22.43;51.36;101349.47;2331737;75;52633;-70
2023/05/14 02:44:54;;;;;;;;;;;;;;;22.43;51.32;101341.87;2355249;75;51550;-69
2023/05/14 02:47:55;;;;;;;;;;;;;;;22.43;51.30;101350.82;2354718;74;51489;-69
2023/05/14 02:50:57;;;;;;;;;;;;;;;22.43;51.46;101348.61;2355046;74;50393;-71
2023/05/14 02:53:58;;;;;;;;;;;;;;;22.42;51.43;101353.17;2333071;75;51776;-69
2023/05/14 02:57:00;;;;;;;;;;;;;;;22.42;51.46;101355.05;2356344;75;50404;-69
2023/05/14 03:00:02;;;;;;;;;;;;;;;22.43;51.40;101341.38;2354283;75;50753;-71
2023/05/14 03:03:03;;;;;;;;;;;;;;;22.44;51.39;101339.52;2353917;75;50726;-69
2023/05/14 03:06:05;;;;;;;;;;;;;;;22.43;51.33;101347.27;2329629;75;51805;-68
2023/05/14 03:09:06;;;;;;;;;;;;;;;22.43;51.33;101340.52;2356048;75;50351;-69
2023/05/14 03:12:08;;;;;;;;;;;;;;;22.43;51.33;101354.00;2354298;75;50722;-69
2023/05/14 03:15:10;;;;;;;;;;;;;;;22.44;51.35;101359.73;2356652;75;51520;-69
2023/05/14 03:18:12;;;;;;;;;;;;;;;22.44;51.31;101358.39;2356378;75;50623;-68
2023/05/14 03:21:13;;;;;;;;;;;;;;;22.43;51.33;101352.66;2382336;74;51816;-69
2023/05/14 03:24:15;;;;;;;;;;;;;;;22.42;51.34;101350.48;2357978;74;51555;-69
2023/05/14 03:27:17;;;;;;;;;;;;;;;22.43;51.33;101355.35;2356566;75;51538;-69
2023/05/14 03:30:18;;;;;;;;;;;;;;;22.43;51.33;101356.70;2354448;75;50760;-69
2023/05/14 03:33:20;;;;;;;;;;;;;;;22.42;51.38;101351.00;2379194;74;51975;-71
2023/05/14 03:36:21;;;;;;;;;;;;;;;22.42;51.34;101342.39;2353404;75;51524;-68
2023/05/14 03:39:23;;;;;;;;;;;;;;;22.42;51.37;101348.30;2355634;75;53967;-69
2023/05/14 03:42:25;;;;;;;;;;;;;;;22.42;51.36;101339.69;2355671;75;51925;-69
2023/05/14 03:45:29;;;;;;;;;;;;;;;22.42;51.36;101341.56;2353675;74;50435;-69
2023/05/14 03:48:30;;;;;;;;;;;;;;;22.42;51.37;101342.39;2355342;75;51593;-69
2023/05/14 03:51:32;;;;;;;;;;;;;;;22.42;51.38;101339.69;2357019;75;51520;-68
2023/05/14 03:54:34;;;;;;;;;;;;;;;22.42;51.37;101348.30;2355796;75;51643;-69
2023/05/14 03:57:36;;;;;;;;;;;;;;;22.41;51.37;101338.55;2378460;74;51803;-70
2023/05/14 04:00:37;;;;;;;;;;;;;;;22.41;51.37;101338.55;2354013;75;52437;-69
2023/05/14 04:03:39;;;;;;;;;;;;;;;22.42;51.37;101337.52;2355980;75;51642;-69
2023/05/14 04:06:40;;;;;;;;;;;;;;;22.41;51.35;101342.08;2353695;75;50793;-70
2023/05/14 04:09:42;;;;;;;;;;;;;;;22.39;51.37;101338.22;2353975;75;52261;-69
2023/05/14 04:12:44;;;;;;;;;;;;;;;22.40;51.37;101339.04;2355909;75;50453;-69
2023/05/14 04:15:47;;;;;;;;;;;;;;;22.39;51.40;101334.17;2355996;75;51639;-70
2023/05/14 04:18:48;;;;;;;;;;;;;;;22.41;51.36;101337.20;2353413;75;52045;-69
2023/05/14 04:21:50;;;;;;;;;;;;;;;22.41;51.37;101329.95;2315299;75;52358;-70
2023/05/14 04:24:52;;;;;;;;;;;;;;;22.41;51.39;101329.11;2356865;75;51879;-70
2023/05/14 04:27:53;;;;;;;;;;;;;;;22.43;51.36;101329.73;2355048;75;51525;-69
2023/05/14 04:30:55;;;;;;;;;;;;;;;22.41;51.38;101327.25;2350448;75;51517;-69
2023/05/14 04:33:56;;;;;;;;;;;;;;;22.42;51.38;101330.77;2327494;75;51842;-69
2023/05/14 04:36:58;;;;;;;;;;;;;;;22.41;51.41;101326.42;2350642;75;52279;-69
2023/05/14 04:40:00;;;;;;;;;;;;;;;22.42;51.40;101321.33;2351043;75;51463;-69
2023/05/14 04:43:01;;;;;;;;;;;;;;;22.42;51.38;101322.69;2355213;75;50388;-71
2023/05/14 04:46:03;;;;;;;;;;;;;;;22.41;51.41;101319.67;2328457;75;51738;-71
2023/05/14 04:49:05;;;;;;;;;;;;;;;22.41;51.44;101321.03;2354899;75;52588;-70
2023/05/14 04:52:06;;;;;;;;;;;;;;;22.41;51.44;101314.28;2347757;75;51514;-69
2023/05/14 04:55:09;;;;;;;;;;;;;;;22.41;51.41;101313.77;2359306;75;51518;-69
2023/05/14 04:58:10;;;;;;;;;;;;;;;22.41;51.44;101314.28;2328362;75;51299;-68
2023/05/14 05:01:12;;;;;;;;;;;;;;;22.44;51.45;101312.55;2356767;75;50413;-68
2023/05/14 05:04:14;;;;;;;;;;;;;;;22.46;51.69;101317.23;2354931;74;51496;-68
2023/05/14 05:07:15;;;;;;;;;;;;;;;22.46;52.02;101315.37;2354541;74;50744;-68
2023/05/14 05:10:17;;;;;;;;;;;;;;;22.47;52.10;101315.68;2387033;74;49611;-70
2023/05/14 05:13:18;;;;;;;;;;;;;;;22.50;52.07;101327.42;2356919;74;50444;-69
2023/05/14 05:16:20;;;;;;;;;;;;;;;22.50;51.99;101318.50;2356474;75;49700;-68
2023/05/14 05:19:21;;;;;;;;;;;;;;;22.50;51.78;101313.11;2356665;75;51525;-71
2023/05/14 05:22:23;;;;;;;;;;;;;;;22.45;51.80;101312.34;2322689;75;52724;-69
2023/05/14 05:25:25;;;;;;;;;;;;;;;22.45;51.78;101312.34;2355871;75;50845;-68
2023/05/14 05:28:26;;;;;;;;;;;;;;;22.48;51.73;101312.47;2350691;75;51538;-68
2023/05/14 05:31:28;;;;;;;;;;;;;;;22.48;51.83;101305.72;2352887;75;52376;-68
2023/05/14 05:34:30;;;;;;;;;;;;;;;22.44;52.06;101307.98;2326140;75;52550;-68
2023/05/14 05:37:31;;;;;;;;;;;;;;;22.46;52.03;101306.45;2352457;75;50798;-68
2023/05/14 05:40:33;;;;;;;;;;;;;;;22.48;52.12;101305.72;2351071;75;50466;-69
2023/05/14 05:43:35;;;;;;;;;;;;;;;22.49;52.03;101307.41;2353022;74;50444;-68
2023/05/14 05:46:37;;;;;;;;;;;;;;;22.52;51.83;101308.36;2326094;75;52799;-69
2023/05/14 05:49:38;;;;;;;;;;;;;;;22.54;51.70;101309.84;2353184;75;52049;-69
2023/05/14 05:52:40;;;;;;;;;;;;;;;22.58;51.60;101308.44;2356780;75;50407;-70
2023/05/14 05:55:42;;;;;;;;;;;;;;;22.53;51.57;101298.75;2360303;74;50804;-68
2023/05/14 05:58:43;;;;;;;;;;;;;;;22.57;51.37;101296.48;2389360;73;49661;-72
2023/05/14 06:01:45;;;;;;;;;;;;;;;22.52;51.38;101297.58;2356638;75;51575;-73
2023/05/14 06:04:47;;;;;;;;;;;;;;;22.59;51.22;101305.22;2360089;75;51548;-71
2023/05/14 06:07:49;;;;;;;;;;;;;;;22.63;51.13;101309.19;2357609;75;50819;-71
2023/05/14 06:10:50;;;;;;;;;;;;;;;22.63;51.13;101311.05;2329242;75;51282;-72
2023/05/14 06:13:52;;;;;;;;;;;;;;;22.66;50.98;101299.87;2356025;74;50710;-71
2023/05/14 06:16:54;;;;;;;;;;;;;;;22.60;50.83;101299.62;2360094;75;50191;-71
2023/05/14 06:19:55;;;;;;;;;;;;;;;22.60;50.47;101302.31;2355806;75;51594;-74
2023/05/14 06:22:57;;;;;;;;;;;;;;;22.60;50.51;101303.66;2331080;75;51202;-71
2023/05/14 06:25:59;;;;;;;;;;;;;;;22.53;50.24;101298.75;2357649;75;51489;-71
2023/05/14 06:29:00;;;;;;;;;;;;;;;22.52;50.42;101296.23;2362345;75;51457;-74
2023/05/14 06:32:02;;;;;;;;;;;;;;;22.48;50.32;101293.59;2363967;74;51503;-72
2023/05/14 06:35:04;;;;;;;;;;;;;;;22.45;50.40;101297.50;2353929;75;50003;-72
2023/05/14 06:38:06;;;;;;;;;;;;;;;22.48;51.67;101303.02;2329689;74;51560;-72
2023/05/14 06:41:08;;;;;;;;;;;;;;;22.49;51.03;101297.97;2357996;75;51429;-71
2023/05/14 06:44:09;;;;;;;;;;;;;;;22.50;50.96;101290.19;2364592;75;50360;-71
2023/05/14 06:47:11;;;;;;;;;;;;;;;22.52;51.15;101298.41;2302516;75;52380;-71
2023/05/14 06:50:13;;;;;;;;;;;;;;;22.53;51.07;101302.80;2359619;75;50039;-72
2023/05/14 06:53:14;;;;;;;;;;;;;;;22.54;51.21;101299.58;2356933;74;50271;-72
2023/05/14 06:56:16;;;;;;;;;;;;;;;22.53;51.16;101296.05;2355637;75;51548;-73
2023/05/14 06:59:18;;;;;;;;;;;;;;;22.55;51.10;101302.58;2378492;74;51781;-72
2023/05/14 07:02:19;;;;;;;;;;;;;;;22.52;51.34;101301.63;2353668;75;51525;-72
2023/05/14 07:05:21;;;;;;;;;;;;;;;22.53;51.23;101301.44;2353536;75;50873;-71
2023/05/14 07:08:22;;;;;;;;;;;;;;;22.53;51.28;101304.14;2353258;75;50507;-70
2023/05/14 07:11:24;;;;;;;;;;;;;;;22.55;51.21;101298.53;2328772;75;49518;-71
2023/05/14 07:14:26;;;;;;;;;;;;;;;22.54;51.24;101290.13;2346671;74;50734;-74
2023/05/14 07:17:27;;;;;;;;;;;;;;;22.55;51.45;101295.84;2358543;74;50429;-71
2023/05/14 07:20:29;;;;;;;;;;;;;;;22.54;51.47;101288.27;2361589;74;51503;-70
2023/05/14 07:23:30;;;;;;;;;;;;;;;22.55;51.41;101292.62;2359658;74;51482;-70
2023/05/14 07:26:32;;;;;;;;;;;;;;;22.55;51.52;101284.53;2361766;74;51498;-72
2023/05/14 07:29:34;;;;;;;;;;;;;;;22.57;51.46;101283.00;2356474;74;51584;-70
2023/05/14 07:32:35;;;;;;;;;;;;;;;22.60;51.56;101277.20;2361398;75;51469;-71
2023/05/14 07:35:37;;;;;;;;;;;;;;;22.63;51.48;101284.91;2366586;74;52599;-72
2023/05/14 07:38:38;;;;;;;;;;;;;;;22.68;51.63;101287.03;2326110;75;51311;-75
2023/05/14 07:41:40;;;;;;;;;;;;;;;22.72;51.76;101275.66;2354294;74;51566;-77
2023/05/14 07:44:41;;;;;;;;;;;;;;;22.74;51.50;101272.25;2363808;74;50241;-76
2023/05/14 07:47:43;;;;;;;;;;;;;;;22.74;51.45;101269.56;2308900;75;51093;-76
2023/05/14 07:50:45;;;;;;;;;;;;;;;22.74;51.38;101271.42;2335435;75;50305;-75
2023/05/14 07:53:46;;;;;;;;;;;;;;;22.75;51.31;101262.30;2328296;75;50648;-75
2023/05/14 07:56:48;;;;;;;;;;;;;;;22.74;51.31;101253.89;2354063;75;49947;-75
2023/05/14 07:59:50;;;;;;;;;;;;;;;22.74;51.19;101260.11;2328033;75;51233;-76
2023/05/14 08:02:51;;;;;;;;;;;;;;;22.74;50.92;101253.89;2356483;75;51576;-75
2023/05/14 08:05:53;;;;;;;;;;;;;;;22.75;50.68;101260.94;2354027;75;51381;-76
2023/05/14 08:08:54;;;;;;;;;;;;;;;22.74;50.57;101252.02;2355868;75;50131;-76
2023/05/14 08:11:56;;;;;;;;;;;;;;;22.76;50.52;101250.45;2354340;75;50270;-76
2023/05/14 08:14:58;;;;;;;;;;;;;;;22.77;50.47;101248.09;2354393;75;50281;-76
2023/05/14 08:18:02;;;;;;;;;;;;;;;22.79;50.46;101246.05;2353875;75;49950;-76
2023/05/14 08:21:02;;;;;;;;;;;;;;;22.78;50.48;101239.79;2355611;74;22355;-76
2023/05/14 08:24:04;;;;;;;;;;;;;;;22.79;50.48;101244.70;2329034;75;50939;-75
2023/05/14 08:27:06;;;;;;;;;;;;;;;22.79;50.45;101236.59;2354944;75;51570;-75
2023/05/14 08:30:08;;;;;;;;;;;;;;;22.77;50.51;101244.05;2355664;75;50269;-75
2023/05/14 08:33:10;;;;;;;;;;;;;;;22.77;50.51;101240.00;2353631;75;50735;-75
2023/05/14 08:36:11;;;;;;;;;;;;;;;22.80;50.46;101235.03;2355384;75;50770;-75
2023/05/14 08:39:13;;;;;;;;;;;;;;;22.78;50.42;101230.34;2353429;75;51463;-76
2023/05/14 08:42:14;;;;;;;;;;;;;;;22.77;50.43;101232.73;2353617;75;51421;-76
2023/05/14 08:45:18;;;;;;;;;;;;;;;22.78;50.35;101227.64;2353312;75;52179;-76
2023/05/14 08:48:19;;;;;;;;;;;;;;;22.81;50.31;101231.81;2327878;75;52731;-75
2023/05/14 08:51:21;;;;;;;;;;;;;;;22.79;50.33;101224.45;2354510;75;50728;-76
2023/05/14 08:54:24;;;;;;;;;;;;;;;22.79;50.32;101222.59;2356974;75;51519;-75
2023/05/14 08:57:25;;;;;;;;;;;;;;;22.78;50.32;101224.95;2361853;74;51520;-76
2023/05/14 09:00:27;;;;;;;;;;;;;;;22.78;50.30;101216.85;2362006;75;51542;-75
2023/05/14 09:03:29;;;;;;;;;;;;;;;22.78;50.31;101218.72;2362041;75;50374;-76
2023/05/14 09:06:31;;;;;;;;;;;;;;;22.78;50.29;101210.11;2361306;74;50423;-76
2023/05/14 09:09:33;;;;;;;;;;;;;;;22.77;50.35;101207.11;2357234;74;51594;-75
2023/05/14 09:12:35;;;;;;;;;;;;;;;22.76;50.34;101193.80;2326107;75;51771;-75
2023/05/14 09:15:36;;;;;;;;;;;;;;;22.73;50.37;101197.73;2324509;75;52496;-76
2023/05/14 09:18:40;;;;;;;;;;;;;;;22.77;50.30;101187.39;2352138;75;50616;-75
2023/05/14 09:21:41;;;;;;;;;;;;;;;22.76;50.29;101188.41;2350349;75;51490;-76
2023/05/14 09:24:43;;;;;;;;;;;;;;;22.78;50.18;101183.13;2380498;74;52465;-75
2023/05/14 09:27:49;;;;;;;;;;;;;;;22.76;50.08;101185.70;2354824;75;50693;-75
2023/05/14 09:30:51;;;;;;;;;;;;;;;22.76;50.09;101171.73;2355590;75;22177;-74
2023/05/14 09:33:53;;;;;;;;;;;;;;;22.76;50.10;101175.77;2352906;75;50791;-76
2023/05/14 09:36:56;;;;;;;;;;;;;;;22.75;50.17;101157.90;2328492;75;51176;-75
2023/05/14 09:39:58;;;;;;;;;;;;;;;22.77;50.17;101165.28;2353245;75;50097;-75
2023/05/14 09:43:00;;;;;;;;;;;;;;;22.76;50.14;101160.94;2355520;75;50380;-76
2023/05/14 09:46:02;;;;;;;;;;;;;;;22.75;50.05;101151.68;2355704;75;51559;-75
2023/05/14 09:49:04;;;;;;;;;;;;;;;22.76;50.10;101136.66;2309423;75;51697;-75
2023/05/14 09:52:06;;;;;;;;;;;;;;;22.76;50.07;101135.30;2356439;75;50233;-76
2023/05/14 09:55:07;;;;;;;;;;;;;;;22.74;50.10;101133.31;2354275;75;51578;-74
2023/05/14 09:58:09;;;;;;;;;;;;;;;22.71;50.04;101131.02;2356155;75;51441;-75
2023/05/14 10:01:11;;;;;;;;;;;;;;;22.74;50.01;101122.52;2327797;75;51654;-75
2023/05/14 10:04:12;;;;;;;;;;;;;;;22.76;49.93;101116.42;2354252;75;51515;-76
2023/05/14 10:07:14;;;;;;;;;;;;;;;22.74;49.97;101119.83;2354131;75;50377;-76
2023/05/14 10:10:16;;;;;;;;;;;;;;;22.74;49.84;101116.30;2354251;74;51512;-75
2023/05/14 10:13:20;;;;;;;;;;;;;;;22.76;49.76;101119.12;2379253;74;51001;-75
2023/05/14 10:16:23;;;;;;;;;;;;;;;22.75;49.79;101112.04;2353977;75;51542;-77
2023/05/14 10:19:25;;;;;;;;;;;;;;;22.73;49.81;101115.45;2354260;75;51527;-76
2023/05/14 10:22:27;;;;;;;;;;;;;;;22.70;49.82;101112.33;2354838;74;51608;-76
2023/05/14 10:25:28;;;;;;;;;;;;;;;22.67;49.90;101107.33;2326422;75;50118;-76
2023/05/14 10:28:30;;;;;;;;;;;;;;;22.69;49.81;101104.75;2350525;75;51454;-76
2023/05/14 10:31:46;;;;;;;;;;;;;;;22.71;49.77;101101.84;2350807;75;50487;-75
2023/05/14 10:34:48;;;;;;;;;;;;;;;22.70;49.72;101095.62;2351199;74;51430;-76
2023/05/14 10:37:50;;;;;;;;;;;;;;;22.71;49.54;101087.86;2324153;75;51759;-76
2023/05/14 10:40:53;;;;;;;;;;;;;;;22.69;49.60;101084.52;2352672;75;51634;-76
2023/05/14 10:43:55;;;;;;;;;;;;;;;22.65;49.67;101082.42;2350655;75;50878;-76
2023/05/14 10:46:57;;;;;;;;;;;;;;;22.63;49.72;101085.83;2352775;74;50055;-76
2023/05/14 10:49:59;;;;;;;;;;;;;;;22.61;49.76;101086.05;2378062;74;52545;-75
2023/05/14 10:53:01;;;;;;;;;;;;;;;22.59;49.76;101078.66;2356207;75;51983;-76
2023/05/14 10:56:03;;;;;;;;;;;;;;;22.59;49.78;101081.36;2354792;75;50672;-76
2023/05/14 10:59:05;;;;;;;;;;;;;;;22.60;49.74;101081.66;2354478;75;50619;-76
2023/05/14 11:02:06;;;;;;;;;;;;;;;22.60;49.85;101078.97;2354823;75;50664;-77
2023/05/14 11:05:09;;;;;;;;;;;;;;;22.60;49.82;101079.79;2327616;75;51665;-76
2023/05/14 11:08:11;;;;;;;;;;;;;;;22.60;49.81;101076.27;2354289;75;51546;-76
2023/05/14 11:11:13;;;;;;;;;;;;;;;22.60;49.85;101075.74;2350300;75;51649;-75
2023/05/14 11:14:14;;;;;;;;;;;;;;;22.60;49.86;101076.27;2377650;74;49578;-75
2023/05/14 11:17:16;;;;;;;;;;;;;;;22.62;49.78;101075.55;2350021;75;51488;-76
2023/05/14 11:20:17;;;;;;;;;;;;;;;22.59;49.81;101066.52;2350436;75;50283;-77
2023/05/14 11:23:21;;;;;;;;;;;;;;;22.61;49.72;101065.29;2355314;75;50261;-75
2023/05/14 11:26:23;;;;;;;;;;;;;;;22.60;49.75;101066.83;2328416;75;50961;-76
2023/05/14 11:29:24;;;;;;;;;;;;;;;22.61;49.72;101056.38;2361762;74;51518;-76
2023/05/14 11:32:26;;;;;;;;;;;;;;;22.62;49.58;101062.07;2362337;74;50293;-76
2023/05/14 11:35:27;;;;;;;;;;;;;;;22.61;49.58;101060.42;2356829;74;50004;-76
2023/05/14 11:38:29;;;;;;;;;;;;;;;22.60;49.62;101058.73;2329874;75;51148;-77
2023/05/14 11:41:30;;;;;;;;;;;;;;;22.60;49.64;101049.30;2362307;74;50699;-76
2023/05/14 11:44:32;;;;;;;;;;;;;;;22.60;49.65;101047.95;2362260;75;51398;-75
2023/05/14 11:47:34;;;;;;;;;;;;;;;22.57;49.75;101040.27;2356585;75;51476;-76
2023/05/14 11:50:35;;;;;;;;;;;;;;;22.57;49.75;101045.66;2329924;75;52459;-76
2023/05/14 11:53:37;;;;;;;;;;;;;;;22.57;49.71;101042.44;2355430;74;50621;-77
2023/05/14 11:56:38;;;;;;;;;;;;;;;22.56;49.66;101031.34;2356349;75;50603;-76
2023/05/14 11:59:40;;;;;;;;;;;;;;;22.56;49.68;101030.00;2354764;75;50342;-75
2023/05/14 12:02:42;;;;;;;;;;;;;;;22.58;49.69;101028.43;2329219;75;51643;-76
2023/05/14 12:05:56;;;;;;;;;;;;;;;22.59;49.63;101024.20;2354469;75;51317;-76
2023/05/14 12:08:57;;;;;;;;;;;;;;;22.58;49.60;101016.29;2354161;75;50763;-76
2023/05/14 12:11:59;;;;;;;;;;;;;;;22.59;49.54;101013.92;2356590;75;49861;-76
2023/05/14 12:15:00;;;;;;;;;;;;;;;22.59;49.54;101004.48;2328500;75;50983;-76
2023/05/14 12:18:02;;;;;;;;;;;;;;;22.60;49.53;101007.48;2354015;75;50823;-76
2023/05/14 12:21:04;;;;;;;;;;;;;;;22.59;49.47;101001.80;2356156;74;51511;-77
2023/05/14 12:24:16;;;;;;;;;;;;;;;22.58;49.52;101006.36;2328874;75;50796;-76
2023/05/14 12:27:20;;;;;;;;;;;;;;;22.59;49.47;100999.92;2354268;75;51562;-76
2023/05/14 12:30:22;;;;;;;;;;;;;;;22.60;49.51;101002.09;2354627;75;50121;-76
2023/05/14 12:33:25;;;;;;;;;;;;;;;22.59;49.47;100992.35;2356579;75;51327;-76
2023/05/14 12:36:27;;;;;;;;;;;;;;;22.57;49.51;100994.41;2356195;74;50293;-77
2023/05/14 12:39:29;;;;;;;;;;;;;;;22.55;49.65;100989.20;2356225;75;51545;-77
2023/05/14 12:42:31;;;;;;;;;;;;;;;22.56;49.67;100984.67;2354585;75;50463;-76
2023/05/14 12:45:33;;;;;;;;;;;;;;;22.57;49.61;100982.27;2356398;74;51480;-75
2023/05/14 12:48:34;;;;;;;;;;;;;;;22.57;49.56;100987.67;2356195;75;50030;-75
2023/05/14 12:51:36;;;;;;;;;;;;;;;22.56;49.55;100982.80;2388437;73;52440;-75
2023/05/14 12:54:39;;;;;;;;;;;;;;;22.56;49.56;100979.28;2357828;75;50297;-75
2023/05/14 12:57:40;;;;;;;;;;;;;;;22.57;49.54;100979.05;2362035;75;51479;-76
2023/05/14 13:00:42;;;;;;;;;;;;;;;22.56;49.53;100980.63;2357805;75;50721;-76
2023/05/14 13:03:44;;;;;;;;;;;;;;;22.55;49.55;100975.72;2357809;75;50672;-77
2023/05/14 13:06:45;;;;;;;;;;;;;;;22.54;49.64;100972.72;2361956;75;51456;-77
2023/05/14 13:09:47;;;;;;;;;;;;;;;22.54;49.73;100973.25;2357735;75;51429;-76
2023/05/14 13:12:49;;;;;;;;;;;;;;;22.52;49.68;100965.87;2357582;75;51488;-76
2023/05/14 13:15:51;;;;;;;;;;;;;;;22.53;49.70;100959.42;2328161;75;49716;-76
2023/05/14 13:18:52;;;;;;;;;;;;;;;22.53;49.73;100949.98;2354291;75;50259;-76
2023/05/14 13:21:54;;;;;;;;;;;;;;;22.52;49.71;100951.86;2357036;75;51438;-76
2023/05/14 13:24:56;;;;;;;;;;;;;;;22.52;49.72;100953.20;2358209;74;51473;-76
2023/05/14 13:27:57;;;;;;;;;;;;;;;22.52;49.70;100953.73;2326939;75;51670;-76
2023/05/14 13:31:04;;;;;;;;;;;;;;;22.52;49.72;100945.64;2353252;75;51441;-78
2023/05/14 13:34:06;;;;;;;;;;;;;;;22.51;49.69;100944.81;2350971;75;50291;-77
2023/05/14 13:37:08;;;;;;;;;;;;;;;22.51;49.72;100937.25;2351152;74;51561;-76
2023/05/14 13:40:10;;;;;;;;;;;;;;;22.51;49.72;100939.95;2378736;74;51276;-76
2023/05/14 13:43:11;;;;;;;;;;;;;;;22.53;49.66;100936.50;2351395;75;51531;-77
2023/05/14 13:46:13;;;;;;;;;;;;;;;22.50;49.71;100930.17;2351315;75;51406;-76
2023/05/14 13:49:15;;;;;;;;;;;;;;;22.51;49.71;100929.16;2353134;75;50426;-77
2023/05/14 13:52:16;;;;;;;;;;;;;;;22.50;49.71;100928.30;2357352;75;51497;-77
2023/05/14 13:55:18;;;;;;;;;;;;;;;22.50;49.75;100924.78;2357346;75;51630;-76
2023/05/14 13:58:19;;;;;;;;;;;;;;;22.49;49.76;100926.66;2356499;75;50205;-77
2023/05/14 14:01:22;;;;;;;;;;;;;;;22.50;49.65;100927.48;2362360;74;50426;-76
2023/05/14 14:04:27;;;;;;;;;;;;;;;22.50;49.67;100921.56;2356858;75;51659;-76
2023/05/14 14:07:27;;;;;;;;;;;;;;;22.49;49.71;100918.56;2356410;75;22337;-76
2023/05/14 14:10:28;;;;;;;;;;;;;;;22.49;49.68;100914.52;2356776;74;50639;-76
2023/05/14 14:13:30;;;;;;;;;;;;;;;22.49;49.66;100904.25;2362271;74;51357;-77
2023/05/14 14:16:31;;;;;;;;;;;;;;;22.50;49.66;100905.91;2328364;75;50972;-76
2023/05/14 14:19:33;;;;;;;;;;;;;;;22.50;49.60;100896.47;2356777;75;51425;-76
2023/05/14 14:22:34;;;;;;;;;;;;;;;22.51;49.65;100898.14;2357727;75;51498;-76
2023/05/14 14:25:36;;;;;;;;;;;;;;;22.50;49.62;100895.12;2359272;75;50634;-76
2023/05/14 14:28:39;;;;;;;;;;;;;;;22.51;49.60;100895.45;2329730;75;52255;-76
2023/05/14 14:31:40;;;;;;;;;;;;;;;22.50;49.57;100893.24;2353279;75;51497;-76
2023/05/14 14:34:42;;;;;;;;;;;;;;;22.50;49.52;100889.20;2353071;74;51453;-76
2023/05/14 14:37:47;;;;;;;;;;;;;;;22.52;49.44;100893.05;2352922;75;51528;-76
2023/05/14 14:40:47;;;;;;;;;;;;;;;22.51;49.45;100885.48;2352909;74;22424;-76
2023/05/14 14:43:49;;;;;;;;;;;;;;;22.50;49.45;100882.45;2324712;74;51035;-76
2023/05/14 14:46:50;;;;;;;;;;;;;;;22.51;49.46;100880.62;2352814;75;49869;-76
2023/05/14 14:49:52;;;;;;;;;;;;;;;22.53;49.41;100874.48;2351394;75;50242;-76
2023/05/14 14:52:53;;;;;;;;;;;;;;;22.52;49.41;100873.66;2352882;75;50623;-76
2023/05/14 14:55:55;;;;;;;;;;;;;;;22.55;49.39;100875.11;2356030;75;50641;-75
2023/05/14 14:58:57;;;;;;;;;;;;;;;22.54;49.44;100866.72;2354325;74;50357;-75
2023/05/14 15:01:58;;;;;;;;;;;;;;;22.54;49.40;100865.38;2356476;75;50443;-75
2023/05/14 15:05:00;;;;;;;;;;;;;;;22.53;49.41;100865.04;2329436;75;52593;-75
2023/05/14 15:08:01;;;;;;;;;;;;;;;22.54;49.36;100859.98;2354227;75;52199;-75
2023/05/14 15:11:03;;;;;;;;;;;;;;;22.53;49.47;100861.85;2356404;75;51399;-75
2023/05/14 15:14:04;;;;;;;;;;;;;;;22.54;49.50;100858.63;2356509;74;51460;-75
2023/05/14 15:17:06;;;;;;;;;;;;;;;22.53;49.43;100848.37;2329185;75;52412;-76
2023/05/14 15:20:08;;;;;;;;;;;;;;;22.55;49.41;100854.89;2356555;75;50730;-76
2023/05/14 15:23:10;;;;;;;;;;;;;;;22.55;49.51;100842.75;2355248;75;51639;-76
2023/05/14 15:26:12;;;;;;;;;;;;;;;22.55;49.58;100842.23;2355750;75;51407;-76
2023/05/14 15:29:13;;;;;;;;;;;;;;;22.53;49.69;100836.23;2387229;73;52581;-76
2023/05/14 15:32:16;;;;;;;;;;;;;;;22.53;49.74;100837.58;2356587;75;51476;-76